createdAt,value
2022-08-25T00:00:28.381Z,0
2022-08-25T00:01:44.561Z,0
2022-08-25T00:03:00.507Z,0
2022-08-25T00:04:16.697Z,0
2022-08-25T00:05:33.133Z,0
2022-08-25T00:06:49.322Z,0
2022-08-25T00:08:04.523Z,0
2022-08-25T00:09:20.730Z,0
2022-08-25T00:10:36.669Z,0
2022-08-25T00:11:53.090Z,0
2022-08-25T00:13:09.036Z,0
2022-08-25T00:14:25.477Z,0
2022-08-25T00:15:41.664Z,0
2022-08-25T00:16:57.596Z,0
2022-08-25T00:18:13.793Z,0
2022-08-25T00:19:29.973Z,0
2022-08-25T00:20:46.163Z,0
2022-08-25T00:22:02.363Z,0
2022-08-25T00:23:18.793Z,0
2022-08-25T00:24:33.996Z,0
2022-08-25T00:25:49.936Z,0
2022-08-25T00:27:06.373Z,0
2022-08-25T00:28:22.574Z,0
2022-08-25T00:29:38.746Z,0
2022-08-25T00:30:54.941Z,0
2022-08-25T00:32:10.878Z,0
2022-08-25T00:33:27.314Z,0
2022-08-25T00:34:43.507Z,0
2022-08-25T00:35:59.707Z,0
2022-08-25T00:37:15.894Z,0
2022-08-25T00:38:32.074Z,0
2022-08-25T00:39:48.257Z,0
2022-08-25T00:41:03.221Z,0
2022-08-25T00:42:19.660Z,0
2022-08-25T00:43:35.854Z,0
2022-08-25T00:44:52.038Z,0
2022-08-25T00:46:08.220Z,0
2022-08-25T00:47:24.419Z,0
2022-08-25T00:48:40.364Z,0
2022-08-25T00:49:56.801Z,0
2022-08-25T00:51:12.986Z,0
2022-08-25T00:52:28.915Z,0
2022-08-25T00:53:45.355Z,0
2022-08-25T00:55:01.551Z,0
2022-08-25T00:56:17.744Z,0
2022-08-25T00:57:32.687Z,0
2022-08-25T00:58:48.875Z,0
2022-08-25T01:00:05.318Z,0
2022-08-25T01:01:21.522Z,0
2022-08-25T01:02:37.702Z,0
2022-08-25T01:03:53.635Z,0
2022-08-25T01:05:10.072Z,0
2022-08-25T01:06:26.007Z,0
2022-08-25T01:07:42.456Z,0
2022-08-25T01:08:58.654Z,0
2022-08-25T01:10:14.592Z,0
2022-08-25T01:11:31.028Z,0
2022-08-25T01:12:47.222Z,0
2022-08-25T01:14:02.431Z,0
2022-08-25T01:15:18.607Z,0
2022-08-25T01:16:34.800Z,0
2022-08-25T01:17:50.998Z,0
2022-08-25T01:19:06.917Z,0
2022-08-25T01:20:23.375Z,0
2022-08-25T01:21:39.556Z,0
2022-08-25T01:22:55.754Z,0
2022-08-25T01:24:11.932Z,0
2022-08-25T01:25:28.126Z,0
2022-08-25T01:26:44.303Z,0
2022-08-25T01:28:00.497Z,0
2022-08-25T01:29:16.681Z,0
2022-08-25T01:30:31.888Z,0
2022-08-25T01:31:48.089Z,0
2022-08-25T01:33:04.011Z,0
2022-08-25T01:34:20.196Z,0
2022-08-25T01:35:36.659Z,0
2022-08-25T01:36:52.576Z,0
2022-08-25T01:38:09.033Z,0
2022-08-25T01:39:25.214Z,0
2022-08-25T01:40:41.414Z,0
2022-08-25T01:41:57.328Z,0
2022-08-25T01:43:13.784Z,0
2022-08-25T01:44:29.979Z,0
2022-08-25T01:45:46.174Z,0
2022-08-25T01:47:01.364Z,0
2022-08-25T01:48:17.000Z,0
2022-08-25T01:49:33.479Z,0
2022-08-25T01:50:49.942Z,0
2022-08-25T01:52:05.869Z,0
2022-08-25T01:53:22.311Z,0
2022-08-25T01:54:38.508Z,0
2022-08-25T01:55:54.697Z,0
2022-08-25T01:57:10.610Z,0
2022-08-25T01:58:26.815Z,0
2022-08-25T01:59:43.255Z,0
2022-08-25T02:00:59.446Z,0
2022-08-25T02:02:15.368Z,0
2022-08-25T02:03:30.000Z,0
2022-08-25T02:04:47.040Z,0
2022-08-25T02:06:03.216Z,0
2022-08-25T02:07:19.411Z,0
2022-08-25T02:08:35.609Z,0
2022-08-25T02:09:51.533Z,0
2022-08-25T02:11:07.970Z,0
2022-08-25T02:12:23.907Z,0
2022-08-25T02:13:40.085Z,0
2022-08-25T02:14:56.545Z,0
2022-08-25T02:16:12.728Z,0
2022-08-25T02:17:28.919Z,0
2022-08-25T02:18:45.113Z,0
2022-08-25T02:20:00.052Z,0
2022-08-25T02:21:16.514Z,0
2022-08-25T02:22:32.693Z,0
2022-08-25T02:23:48.885Z,0
2022-08-25T02:25:04.796Z,0
2022-08-25T02:26:21.270Z,0
2022-08-25T02:27:37.187Z,0
2022-08-25T02:28:53.650Z,0
2022-08-25T02:30:09.828Z,0
2022-08-25T02:31:26.028Z,0
2022-08-25T02:32:41.946Z,0
2022-08-25T02:33:58.391Z,0
2022-08-25T02:35:14.584Z,0
2022-08-25T02:36:29.804Z,0
2022-08-25T02:37:45.992Z,0
2022-08-25T02:39:01.889Z,0
2022-08-25T02:40:18.349Z,0
2022-08-25T02:41:34.541Z,0
2022-08-25T02:42:50.453Z,0
2022-08-25T02:44:06.927Z,0
2022-08-25T02:45:22.827Z,0
2022-08-25T02:46:39.294Z,0
2022-08-25T02:47:55.200Z,0
2022-08-25T02:49:11.664Z,0
2022-08-25T02:50:27.863Z,0
2022-08-25T02:51:44.034Z,0
2022-08-25T02:52:59.252Z,0
2022-08-25T02:54:15.426Z,0
2022-08-25T02:55:31.630Z,0
2022-08-25T02:56:47.820Z,0
2022-08-25T02:58:03.713Z,0
2022-08-25T02:59:20.179Z,0
2022-08-25T03:00:36.363Z,0
2022-08-25T03:01:52.563Z,0
2022-08-25T03:03:08.743Z,0
2022-08-25T03:04:24.931Z,0
2022-08-25T03:05:40.842Z,0
2022-08-25T03:06:57.300Z,0
2022-08-25T03:08:13.494Z,0
2022-08-25T03:09:28.705Z,0
2022-08-25T03:10:44.877Z,0
2022-08-25T03:12:01.083Z,0
2022-08-25T03:13:16.988Z,0
2022-08-25T03:14:33.447Z,0
2022-08-25T03:15:49.639Z,0
2022-08-25T03:17:05.815Z,0
2022-08-25T03:18:22.021Z,0
2022-08-25T03:19:38.203Z,0
2022-08-25T03:20:54.097Z,0
2022-08-25T03:22:10.571Z,0
2022-08-25T03:23:26.760Z,0
2022-08-25T03:24:42.956Z,0
2022-08-25T03:25:57.868Z,0
2022-08-25T03:27:14.063Z,0
2022-08-25T03:28:30.237Z,0
2022-08-25T03:29:46.708Z,0
2022-08-25T03:31:02.900Z,0
2022-08-25T03:32:19.090Z,0
2022-08-25T03:33:35.273Z,0
2022-08-25T03:34:51.455Z,0
2022-08-25T03:36:07.371Z,0
2022-08-25T03:37:23.558Z,0
2022-08-25T03:38:40.030Z,0
2022-08-25T03:39:56.207Z,0
2022-08-25T03:41:12.393Z,4
2022-08-25T03:42:27.320Z,4
2022-08-25T03:43:43.502Z,4
2022-08-25T03:44:59.989Z,4
2022-08-25T03:46:16.171Z,4
2022-08-25T03:47:32.344Z,8
2022-08-25T03:48:48.535Z,8
2022-08-25T03:50:03.756Z,12
2022-08-25T03:51:19.646Z,12
2022-08-25T03:52:35.828Z,16
2022-08-25T03:53:52.318Z,16
2022-08-25T03:55:08.206Z,20
2022-08-25T03:56:24.402Z,28
2022-08-25T03:57:40.878Z,28
2022-08-25T03:58:56.782Z,36
2022-08-25T04:00:13.253Z,36
2022-08-25T04:01:29.436Z,40
2022-08-25T04:02:45.618Z,48
2022-08-25T04:04:01.514Z,56
2022-08-25T04:05:17.993Z,60
2022-08-25T04:06:32.912Z,68
2022-08-25T04:07:49.399Z,76
2022-08-25T04:09:05.586Z,84
2022-08-25T04:10:21.764Z,92
2022-08-25T04:11:37.956Z,96
2022-08-25T04:12:54.130Z,108
2022-08-25T04:14:10.029Z,116
2022-08-25T04:15:26.514Z,124
2022-08-25T04:16:42.699Z,132
2022-08-25T04:17:58.881Z,144
2022-08-25T04:19:15.085Z,152
2022-08-25T04:20:30.978Z,164
2022-08-25T04:21:47.163Z,172
2022-08-25T04:23:02.656Z,184
2022-08-25T04:24:18.835Z,192
2022-08-25T04:25:35.024Z,204
2022-08-25T04:26:51.206Z,212
2022-08-25T04:28:07.408Z,224
2022-08-25T04:29:23.585Z,236
2022-08-25T04:30:39.782Z,248
2022-08-25T04:31:55.966Z,260
2022-08-25T04:33:12.145Z,272
2022-08-25T04:34:28.043Z,280
2022-08-25T04:35:44.534Z,292
2022-08-25T04:37:00.413Z,308
2022-08-25T04:38:16.899Z,316
2022-08-25T04:39:32.097Z,324
2022-08-25T04:40:48.292Z,336
2022-08-25T04:42:04.473Z,340
2022-08-25T04:43:20.677Z,364
2022-08-25T04:44:36.853Z,372
2022-08-25T04:45:53.038Z,372
2022-08-25T04:47:09.222Z,388
2022-08-25T04:48:25.419Z,412
2022-08-25T04:49:41.605Z,400
2022-08-25T04:50:57.787Z,412
2022-08-25T04:52:13.980Z,428
2022-08-25T04:53:30.168Z,428
2022-08-25T04:54:46.360Z,456
2022-08-25T04:56:01.552Z,480
2022-08-25T04:57:17.737Z,472
2022-08-25T04:58:33.624Z,484
2022-08-25T04:59:50.125Z,512
2022-08-25T05:01:06.305Z,496
2022-08-25T05:02:22.496Z,532
2022-08-25T05:03:38.387Z,516
2022-08-25T05:04:54.877Z,556
2022-08-25T05:06:11.057Z,568
2022-08-25T05:07:26.945Z,592
2022-08-25T05:08:43.426Z,596
2022-08-25T05:09:59.612Z,616
2022-08-25T05:11:15.492Z,628
2022-08-25T05:12:31.016Z,648
2022-08-25T05:13:47.207Z,652
2022-08-25T05:15:03.077Z,684
2022-08-25T05:16:19.575Z,720
2022-08-25T05:17:35.759Z,684
2022-08-25T05:18:51.633Z,716
2022-08-25T05:20:08.141Z,724
2022-08-25T05:21:24.008Z,728
2022-08-25T05:22:40.207Z,732
2022-08-25T05:23:56.693Z,772
2022-08-25T05:25:12.891Z,776
2022-08-25T05:26:29.068Z,760
2022-08-25T05:27:45.268Z,776
2022-08-25T05:29:00.462Z,740
2022-08-25T05:30:16.346Z,744
2022-08-25T05:31:32.834Z,808
2022-08-25T05:32:49.021Z,808
2022-08-25T05:34:05.212Z,828
2022-08-25T05:35:21.088Z,800
2022-08-25T05:36:37.591Z,744
2022-08-25T05:37:53.763Z,832
2022-08-25T05:39:09.967Z,876
2022-08-25T05:40:25.838Z,892
2022-08-25T05:41:42.017Z,928
2022-08-25T05:42:58.530Z,912
2022-08-25T05:44:14.720Z,1028
2022-08-25T05:45:29.921Z,936
2022-08-25T05:46:46.098Z,1072
2022-08-25T05:48:02.279Z,1008
2022-08-25T05:49:18.173Z,1000
2022-08-25T05:50:34.000Z,1160
2022-08-25T05:51:50.861Z,1076
2022-08-25T05:53:07.032Z,1100
2022-08-25T05:54:23.228Z,1108
2022-08-25T05:55:39.419Z,1088
2022-08-25T05:56:55.604Z,1160
2022-08-25T05:58:11.796Z,1204
2022-08-25T05:59:27.982Z,1148
2022-08-25T06:00:44.120Z,1156
2022-08-25T06:01:59.316Z,1116
2022-08-25T06:03:15.517Z,1124
2022-08-25T06:04:31.692Z,1140
2022-08-25T06:05:47.936Z,1200
2022-08-25T06:07:04.062Z,1224
2022-08-25T06:08:20.247Z,1220
2022-08-25T06:09:36.500Z,1336
2022-08-25T06:10:52.686Z,1444
2022-08-25T06:12:08.860Z,1388
2022-08-25T06:13:25.047Z,1364
2022-08-25T06:14:41.186Z,1380
2022-08-25T06:15:57.437Z,1376
2022-08-25T06:17:13.622Z,1264
2022-08-25T06:18:28.822Z,1332
2022-08-25T06:19:45.007Z,1400
2022-08-25T06:21:01.195Z,1328
2022-08-25T06:22:17.379Z,1404
2022-08-25T06:23:33.528Z,1304
2022-08-25T06:24:49.755Z,1440
2022-08-25T06:26:05.951Z,1440
2022-08-25T06:27:22.085Z,1440
2022-08-25T06:28:38.315Z,1360
2022-08-25T06:29:54.460Z,1444
2022-08-25T06:31:10.646Z,1488
2022-08-25T06:32:26.881Z,1436
2022-08-25T06:33:43.023Z,1572
2022-08-25T06:34:58.264Z,1548
2022-08-25T06:36:14.461Z,1580
2022-08-25T06:37:30.590Z,1532
2022-08-25T06:38:46.838Z,1612
2022-08-25T06:40:02.973Z,1580
2022-08-25T06:41:19.202Z,1500
2022-08-25T06:42:35.393Z,1384
2022-08-25T06:43:51.588Z,1428
2022-08-25T06:45:07.771Z,1624
2022-08-25T06:46:23.962Z,1620
2022-08-25T06:47:40.144Z,1480
2022-08-25T06:48:56.324Z,1560
2022-08-25T06:50:12.456Z,1568
2022-08-25T06:51:27.668Z,1472
2022-08-25T06:52:43.917Z,1588
2022-08-25T06:54:00.035Z,1588
2022-08-25T06:55:16.293Z,1604
2022-08-25T06:56:32.463Z,1616
2022-08-25T06:57:48.650Z,1620
2022-08-25T06:59:04.788Z,1604
2022-08-25T07:00:21.041Z,1612
2022-08-25T07:01:37.166Z,1708
2022-08-25T07:02:53.414Z,1556
2022-08-25T07:04:09.591Z,1632
2022-08-25T07:05:25.783Z,1808
2022-08-25T07:06:41.965Z,2084
2022-08-25T07:07:57.171Z,1744
2022-08-25T07:09:13.361Z,1792
2022-08-25T07:10:29.553Z,1784
2022-08-25T07:11:45.734Z,1828
2022-08-25T07:13:01.926Z,1960
2022-08-25T07:14:18.118Z,1828
2022-08-25T07:15:34.302Z,1800
2022-08-25T07:16:50.427Z,1840
2022-08-25T07:18:06.608Z,2020
2022-08-25T07:19:22.806Z,2088
2022-08-25T07:20:39.053Z,1996
2022-08-25T07:21:55.228Z,2024
2022-08-25T07:23:11.433Z,1836
2022-08-25T07:24:26.556Z,1868
2022-08-25T07:25:42.763Z,1912
2022-08-25T07:26:59.001Z,2116
2022-08-25T07:28:15.186Z,2344
2022-08-25T07:29:31.308Z,2240
2022-08-25T07:30:47.571Z,2364
2022-08-25T07:32:03.696Z,2404
2022-08-25T07:33:19.945Z,2504
2022-08-25T07:34:36.132Z,2516
2022-08-25T07:35:52.306Z,2436
2022-08-25T07:37:08.496Z,2636
2022-08-25T07:38:24.000Z,2920
2022-08-25T07:39:40.885Z,2724
2022-08-25T07:40:56.089Z,2608
2022-08-25T07:42:12.203Z,2628
2022-08-25T07:43:28.380Z,2704
2022-08-25T07:44:44.647Z,2668
2022-08-25T07:46:00.822Z,2572
2022-08-25T07:47:17.017Z,2456
2022-08-25T07:48:33.212Z,2608
2022-08-25T07:49:49.316Z,2352
2022-08-25T07:51:05.581Z,2468
2022-08-25T07:52:21.772Z,2380
2022-08-25T07:53:37.950Z,2352
2022-08-25T07:54:54.067Z,2636
2022-08-25T07:56:10.334Z,2556
2022-08-25T07:57:25.466Z,2440
2022-08-25T07:58:41.729Z,2628
2022-08-25T07:59:57.916Z,2880
2022-08-25T08:01:14.088Z,3016
2022-08-25T08:02:30.222Z,3064
2022-08-25T08:03:46.474Z,3228
2022-08-25T08:05:01.685Z,3772
2022-08-25T08:06:17.873Z,3940
2022-08-25T08:07:34.053Z,3652
2022-08-25T08:08:50.174Z,3860
2022-08-25T08:10:06.366Z,4132
2022-08-25T08:11:22.607Z,4236
2022-08-25T08:12:38.799Z,4220
2022-08-25T08:13:54.988Z,4512
2022-08-25T08:15:11.173Z,4148
2022-08-25T08:16:27.373Z,3648
2022-08-25T08:17:43.561Z,3840
2022-08-25T08:18:59.744Z,4160
2022-08-25T08:20:15.854Z,4124
2022-08-25T08:21:31.064Z,3956
2022-08-25T08:22:47.238Z,4868
2022-08-25T08:24:03.499Z,4532
2022-08-25T08:25:19.700Z,4288
2022-08-25T08:26:35.879Z,3980
2022-08-25T08:27:52.060Z,4992
2022-08-25T08:29:08.253Z,5076
2022-08-25T08:30:24.364Z,5256
2022-08-25T08:31:40.631Z,5372
2022-08-25T08:32:56.750Z,5064
2022-08-25T08:34:12.993Z,5452
2022-08-25T08:35:29.192Z,5184
2022-08-25T08:36:45.293Z,5148
2022-08-25T08:38:00.584Z,4952
2022-08-25T08:39:16.770Z,5244
2022-08-25T08:40:32.888Z,4812
2022-08-25T08:41:49.060Z,4836
2022-08-25T08:43:05.265Z,5196
2022-08-25T08:44:21.443Z,5236
2022-08-25T08:45:37.634Z,4484
2022-08-25T08:46:53.824Z,4940
2022-08-25T08:48:10.078Z,5084
2022-08-25T08:49:26.264Z,5816
2022-08-25T08:50:42.370Z,5448
2022-08-25T08:51:58.638Z,5476
2022-08-25T08:53:14.834Z,4980
2022-08-25T08:54:30.043Z,4920
2022-08-25T08:55:46.138Z,4712
2022-08-25T08:57:02.407Z,4384
2022-08-25T08:58:18.604Z,3428
2022-08-25T08:59:34.775Z,3620
2022-08-25T09:00:50.893Z,3400
2022-08-25T09:02:07.087Z,3616
2022-08-25T09:03:23.261Z,4148
2022-08-25T09:04:39.543Z,3808
2022-08-25T09:05:55.634Z,4244
2022-08-25T09:07:11.918Z,3432
2022-08-25T09:08:28.103Z,4540
2022-08-25T09:09:44.192Z,4736
2022-08-25T09:10:59.406Z,4128
2022-08-25T09:12:15.591Z,4688
2022-08-25T09:13:31.871Z,3984
2022-08-25T09:14:47.975Z,4100
2022-08-25T09:16:04.233Z,3092
2022-08-25T09:17:20.428Z,3656
2022-08-25T09:18:36.602Z,3708
2022-08-25T09:19:52.720Z,3784
2022-08-25T09:21:08.978Z,4252
2022-08-25T09:22:25.180Z,5124
2022-08-25T09:23:41.365Z,4636
2022-08-25T09:24:57.462Z,4420
2022-08-25T09:26:13.660Z,4916
2022-08-25T09:27:28.931Z,5196
2022-08-25T09:28:45.135Z,4840
2022-08-25T09:30:01.315Z,4604
2022-08-25T09:31:17.408Z,3816
2022-08-25T09:32:33.684Z,4096
2022-08-25T09:33:49.794Z,3880
2022-08-25T09:35:06.062Z,4168
2022-08-25T09:36:22.247Z,4608
2022-08-25T09:37:38.351Z,5968
2022-08-25T09:38:54.542Z,5688
2022-08-25T09:40:10.816Z,6136
2022-08-25T09:41:26.923Z,6092
2022-08-25T09:42:43.199Z,5464
2022-08-25T09:43:58.312Z,5256
2022-08-25T09:45:14.580Z,5484
2022-08-25T09:46:30.765Z,5692
2022-08-25T09:47:46.859Z,5000
2022-08-25T09:49:03.057Z,4400
2022-08-25T09:50:19.231Z,5272
2022-08-25T09:51:35.424Z,4076
2022-08-25T09:52:51.712Z,3308
2022-08-25T09:54:07.896Z,3740
2022-08-25T09:55:24.082Z,3832
2022-08-25T09:56:40.181Z,5016
2022-08-25T09:57:56.456Z,5200
2022-08-25T09:59:12.560Z,5272
2022-08-25T10:00:27.849Z,6232
2022-08-25T10:01:44.036Z,5364
2022-08-25T10:03:00.220Z,5808
2022-08-25T10:04:16.326Z,6124
2022-08-25T10:05:32.593Z,5964
2022-08-25T10:06:48.681Z,5892
2022-08-25T10:08:04.976Z,5684
2022-08-25T10:09:21.065Z,6780
2022-08-25T10:10:37.255Z,6988
2022-08-25T10:11:53.444Z,5200
2022-08-25T10:13:09.730Z,5256
2022-08-25T10:14:25.823Z,4440
2022-08-25T10:15:41.999Z,4832
2022-08-25T10:16:57.295Z,6312
2022-08-25T10:18:13.477Z,5948
2022-08-25T10:19:29.582Z,6084
2022-08-25T10:20:45.852Z,4476
2022-08-25T10:22:01.957Z,3104
2022-08-25T10:23:18.132Z,4480
2022-08-25T10:24:34.430Z,4248
2022-08-25T10:25:50.000Z,4276
2022-08-25T10:27:06.791Z,5596
2022-08-25T10:28:22.979Z,5344
2022-08-25T10:29:39.079Z,3660
2022-08-25T10:30:55.360Z,3284
2022-08-25T10:32:11.554Z,3232
2022-08-25T10:33:26.752Z,5420
2022-08-25T10:34:42.936Z,6296
2022-08-25T10:35:59.137Z,5384
2022-08-25T10:37:15.308Z,5924
2022-08-25T10:38:31.492Z,6516
2022-08-25T10:39:47.688Z,6124
2022-08-25T10:41:03.769Z,4732
2022-08-25T10:42:20.063Z,4632
2022-08-25T10:43:36.249Z,5724
2022-08-25T10:44:52.439Z,7236
2022-08-25T10:46:08.633Z,9080
2022-08-25T10:47:24.706Z,8680
2022-08-25T10:48:40.892Z,9568
2022-08-25T10:49:56.109Z,8456
2022-08-25T10:51:12.302Z,7488
2022-08-25T10:52:28.572Z,6904
2022-08-25T10:53:44.774Z,6476
2022-08-25T10:55:00.945Z,6644
2022-08-25T10:56:17.038Z,6568
2022-08-25T10:57:33.220Z,5964
2022-08-25T10:58:49.515Z,6180
2022-08-25T11:00:05.607Z,6524
2022-08-25T11:01:21.903Z,7252
2022-08-25T11:02:38.082Z,7156
2022-08-25T11:03:54.259Z,5020
2022-08-25T11:05:10.342Z,5556
2022-08-25T11:06:25.663Z,6984
2022-08-25T11:07:41.851Z,8068
2022-08-25T11:08:58.025Z,8780
2022-08-25T11:10:14.219Z,6108
2022-08-25T11:11:30.417Z,4824
2022-08-25T11:12:46.603Z,8224
2022-08-25T11:14:02.780Z,9316
2022-08-25T11:15:18.965Z,8256
2022-08-25T11:16:35.149Z,7492
2022-08-25T11:17:51.231Z,8272
2022-08-25T11:19:07.529Z,8536
2022-08-25T11:20:23.611Z,10464
2022-08-25T11:21:39.799Z,11928
2022-08-25T11:22:55.006Z,12560
2022-08-25T11:24:11.302Z,9356
2022-08-25T11:25:27.490Z,6264
2022-08-25T11:26:43.683Z,5812
2022-08-25T11:27:59.755Z,5952
2022-08-25T11:29:16.046Z,5032
2022-08-25T11:30:32.135Z,6320
2022-08-25T11:31:48.321Z,8016
2022-08-25T11:33:04.609Z,6752
2022-08-25T11:34:20.798Z,7380
2022-08-25T11:35:36.990Z,6516
2022-08-25T11:36:53.169Z,4812
2022-08-25T11:38:09.354Z,7312
2022-08-25T11:39:24.571Z,9864
2022-08-25T11:40:40.647Z,14572
2022-08-25T11:41:56.933Z,14956
2022-08-25T11:43:13.014Z,20864
2022-08-25T11:44:29.215Z,18300
2022-08-25T11:45:45.500Z,8632
2022-08-25T11:47:01.684Z,13432
2022-08-25T11:48:17.768Z,9332
2022-08-25T11:49:34.066Z,10716
2022-08-25T11:50:50.150Z,9268
2022-08-25T11:52:06.436Z,9704
2022-08-25T11:53:22.627Z,11996
2022-08-25T11:54:38.820Z,7524
2022-08-25T11:55:54.023Z,9516
2022-08-25T11:57:10.096Z,8844
2022-08-25T11:58:26.392Z,7480
2022-08-25T11:59:42.583Z,14640
2022-08-25T12:00:58.763Z,9092
2022-08-25T12:02:14.964Z,21760
2022-08-25T12:03:31.155Z,33056
2022-08-25T12:04:47.211Z,58656
2022-08-25T12:06:03.405Z,62048
2022-08-25T12:07:19.587Z,58400
2022-08-25T12:08:35.888Z,54688
2022-08-25T12:09:51.968Z,57952
2022-08-25T12:11:08.266Z,59168
2022-08-25T12:12:23.369Z,59072
2022-08-25T12:13:39.674Z,10120
2022-08-25T12:14:55.861Z,7724
2022-08-25T12:16:12.037Z,7344
2022-08-25T12:17:28.228Z,7760
2022-08-25T12:18:44.416Z,34048
2022-08-25T12:19:59.620Z,27968
2022-08-25T12:21:15.700Z,64000
2022-08-25T12:22:32.001Z,65344
2022-08-25T12:23:48.081Z,66272
2022-08-25T12:25:04.391Z,72128
2022-08-25T12:26:20.584Z,75520
2022-08-25T12:27:36.756Z,64448
2022-08-25T12:28:52.838Z,58400
2022-08-25T12:30:09.143Z,55040
2022-08-25T12:31:25.340Z,7608
2022-08-25T12:32:41.407Z,7320
2022-08-25T12:33:57.716Z,7008
2022-08-25T12:35:13.776Z,63968
2022-08-25T12:36:28.975Z,61952
2022-08-25T12:37:45.303Z,61824
2022-08-25T12:39:01.484Z,61088
2022-08-25T12:40:17.683Z,60000
2022-08-25T12:41:33.864Z,58016
2022-08-25T12:42:50.063Z,55136
2022-08-25T12:44:06.112Z,58624
2022-08-25T12:45:22.423Z,61632
2022-08-25T12:46:38.614Z,12256
2022-08-25T12:47:54.689Z,9348
2022-08-25T12:49:10.993Z,36288
2022-08-25T12:50:27.183Z,23712
2022-08-25T12:51:43.263Z,8972
2022-08-25T12:52:58.576Z,6044
2022-08-25T12:54:14.779Z,6560
2022-08-25T12:55:30.970Z,7784
2022-08-25T12:56:47.155Z,13456
2022-08-25T12:58:03.341Z,58336
2022-08-25T12:59:19.413Z,56544
2022-08-25T13:00:35.588Z,53280
2022-08-25T13:01:51.913Z,55456
2022-08-25T13:03:08.102Z,53152
2022-08-25T13:04:24.289Z,49984
2022-08-25T13:05:40.484Z,60704
2022-08-25T13:06:56.548Z,36160
2022-08-25T13:08:12.730Z,34752
2022-08-25T13:09:28.062Z,7984
2022-08-25T13:10:44.126Z,5872
2022-08-25T13:12:00.449Z,5544
2022-08-25T13:13:16.506Z,5760
2022-08-25T13:14:32.813Z,7432
2022-08-25T13:15:48.866Z,9824
2022-08-25T13:17:05.196Z,66176
2022-08-25T13:18:21.384Z,16948
2022-08-25T13:19:37.582Z,51456
2022-08-25T13:20:53.756Z,64800
2022-08-25T13:22:09.953Z,64768
2022-08-25T13:23:26.138Z,59712
2022-08-25T13:24:42.339Z,7044
2022-08-25T13:25:57.527Z,4836
2022-08-25T13:27:13.730Z,5000
2022-08-25T13:28:29.914Z,6984
2022-08-25T13:29:45.967Z,57984
2022-08-25T13:31:02.298Z,56768
2022-08-25T13:32:18.483Z,8468
2022-08-25T13:33:34.662Z,9276
2022-08-25T13:34:50.858Z,61888
2022-08-25T13:36:07.059Z,64320
2022-08-25T13:37:23.099Z,66912
2022-08-25T13:38:39.295Z,62528
2022-08-25T13:39:55.616Z,68832
2022-08-25T13:41:11.812Z,45728
2022-08-25T13:42:27.002Z,65696
2022-08-25T13:43:43.194Z,68032
2022-08-25T13:44:59.399Z,66944
2022-08-25T13:46:15.442Z,66688
2022-08-25T13:47:31.768Z,66272
2022-08-25T13:48:47.815Z,61504
2022-08-25T13:50:04.005Z,61056
2022-08-25T13:51:20.200Z,8472
2022-08-25T13:52:36.394Z,11024
2022-08-25T13:53:52.723Z,33376
2022-08-25T13:55:08.758Z,20384
2022-08-25T13:56:25.090Z,60832
2022-08-25T13:57:41.152Z,60480
2022-08-25T13:58:56.481Z,56032
2022-08-25T14:00:12.537Z,37728
2022-08-25T14:01:28.735Z,33536
2022-08-25T14:02:45.057Z,55616
2022-08-25T14:04:01.109Z,53760
2022-08-25T14:05:17.434Z,38112
2022-08-25T14:06:33.619Z,56352
2022-08-25T14:07:49.683Z,55040
2022-08-25T14:09:05.997Z,54240
2022-08-25T14:10:22.200Z,53248
2022-08-25T14:11:38.235Z,51680
2022-08-25T14:12:54.562Z,8060
2022-08-25T14:14:10.762Z,51360
2022-08-25T14:15:25.972Z,7196
2022-08-25T14:16:42.007Z,13112
2022-08-25T14:17:58.336Z,3328
2022-08-25T14:19:14.538Z,2696
2022-08-25T14:20:30.730Z,2744
2022-08-25T14:21:46.907Z,3292
2022-08-25T14:23:03.095Z,15552
2022-08-25T14:24:19.292Z,20544
2022-08-25T14:25:35.486Z,26400
2022-08-25T14:26:51.664Z,44544
2022-08-25T14:28:07.860Z,44928
2022-08-25T14:29:23.907Z,5404
2022-08-25T14:30:40.082Z,6836
2022-08-25T14:31:55.440Z,43808
2022-08-25T14:33:11.625Z,44032
2022-08-25T14:34:27.814Z,44288
2022-08-25T14:35:44.008Z,43904
2022-08-25T14:37:00.206Z,42688
2022-08-25T14:38:16.241Z,40224
2022-08-25T14:39:32.583Z,40448
2022-08-25T14:40:48.764Z,40416
2022-08-25T14:42:04.822Z,38656
2022-08-25T14:43:21.154Z,35648
2022-08-25T14:44:37.329Z,20928
2022-08-25T14:45:53.528Z,9356
2022-08-25T14:47:09.708Z,7036
2022-08-25T14:48:24.922Z,6472
2022-08-25T14:49:41.102Z,5704
2022-08-25T14:50:57.305Z,5156
2022-08-25T14:52:13.494Z,4932
2022-08-25T14:53:29.683Z,4760
2022-08-25T14:54:45.723Z,4484
2022-08-25T14:56:02.057Z,4188
2022-08-25T14:57:18.255Z,4012
2022-08-25T14:58:34.436Z,3920
2022-08-25T14:59:50.623Z,3864
2022-08-25T15:01:06.818Z,3804
2022-08-25T15:02:23.001Z,3736
2022-08-25T15:03:39.204Z,3712
2022-08-25T15:04:54.400Z,3876
2022-08-25T15:06:10.582Z,4552
2022-08-25T15:07:26.784Z,5296
2022-08-25T15:08:42.828Z,5424
2022-08-25T15:09:59.149Z,5424
2022-08-25T15:11:15.341Z,4944
2022-08-25T15:12:31.544Z,4168
2022-08-25T15:13:47.725Z,3744
2022-08-25T15:15:03.911Z,3548
2022-08-25T15:16:20.111Z,3480
2022-08-25T15:17:36.295Z,3452
2022-08-25T15:18:52.492Z,3292
2022-08-25T15:20:08.517Z,3172
2022-08-25T15:21:23.880Z,3112
2022-08-25T15:22:40.079Z,3044
2022-08-25T15:23:56.250Z,2960
2022-08-25T15:25:12.444Z,2892
2022-08-25T15:26:28.477Z,2868
2022-08-25T15:27:44.829Z,2868
2022-08-25T15:29:01.006Z,2880
2022-08-25T15:30:17.200Z,2844
2022-08-25T15:31:33.234Z,2836
2022-08-25T15:32:49.428Z,2828
2022-08-25T15:34:05.622Z,2828
2022-08-25T15:35:21.960Z,2832
2022-08-25T15:36:38.160Z,3056
2022-08-25T15:37:53.351Z,3200
2022-08-25T15:39:09.389Z,3104
2022-08-25T15:40:25.577Z,2792
2022-08-25T15:41:41.764Z,2860
2022-08-25T15:42:58.109Z,2780
2022-08-25T15:44:14.301Z,2940
2022-08-25T15:45:30.324Z,2920
2022-08-25T15:46:46.524Z,2752
2022-08-25T15:48:02.703Z,2468
2022-08-25T15:49:18.911Z,2252
2022-08-25T15:50:35.253Z,2192
2022-08-25T15:51:51.445Z,2340
2022-08-25T15:53:07.632Z,3008
2022-08-25T15:54:22.667Z,3820
2022-08-25T15:55:39.023Z,3688
2022-08-25T15:56:55.044Z,3336
2022-08-25T15:58:11.399Z,3188
2022-08-25T15:59:27.585Z,2964
2022-08-25T16:00:43.774Z,2692
2022-08-25T16:01:59.801Z,2424
2022-08-25T16:03:16.161Z,2172
2022-08-25T16:04:32.180Z,2016
2022-08-25T16:05:48.544Z,1928
2022-08-25T16:07:04.563Z,1948
2022-08-25T16:08:20.910Z,1964
2022-08-25T16:09:37.107Z,1960
2022-08-25T16:10:52.140Z,1928
2022-08-25T16:12:08.334Z,1944
2022-08-25T16:13:24.685Z,2000
2022-08-25T16:14:40.872Z,2148
2022-08-25T16:15:56.915Z,2288
2022-08-25T16:17:13.106Z,2948
2022-08-25T16:18:29.296Z,3280
2022-08-25T16:19:45.474Z,2976
2022-08-25T16:21:01.822Z,2544
2022-08-25T16:22:18.027Z,2056
2022-08-25T16:23:34.209Z,1784
2022-08-25T16:24:50.403Z,1556
2022-08-25T16:26:06.427Z,1336
2022-08-25T16:27:21.792Z,1220
2022-08-25T16:28:37.986Z,1180
2022-08-25T16:29:54.172Z,1172
2022-08-25T16:31:10.186Z,1224
2022-08-25T16:32:26.384Z,1240
2022-08-25T16:33:42.732Z,1268
2022-08-25T16:34:57.939Z,1296
2022-08-25T16:36:13.975Z,1320
2022-08-25T16:37:30.322Z,1348
2022-08-25T16:38:46.524Z,1360
2022-08-25T16:40:02.534Z,1352
2022-08-25T16:41:18.891Z,1340
2022-08-25T16:42:35.090Z,1336
2022-08-25T16:43:51.266Z,1344
2022-08-25T16:45:07.457Z,1376
2022-08-25T16:46:23.473Z,1328
2022-08-25T16:47:39.673Z,1280
2022-08-25T16:48:55.861Z,1252
2022-08-25T16:50:12.214Z,1236
2022-08-25T16:51:27.423Z,1224
2022-08-25T16:52:43.623Z,1172
2022-08-25T16:53:59.798Z,1108
2022-08-25T16:55:15.991Z,1052
2022-08-25T16:56:32.176Z,1024
2022-08-25T16:57:48.378Z,1000
2022-08-25T16:59:04.552Z,996
2022-08-25T17:00:20.570Z,988
2022-08-25T17:01:36.948Z,980
2022-08-25T17:02:53.122Z,964
2022-08-25T17:04:09.311Z,944
2022-08-25T17:05:25.516Z,920
2022-08-25T17:06:41.703Z,892
2022-08-25T17:07:56.907Z,864
2022-08-25T17:09:13.086Z,832
2022-08-25T17:10:29.000Z,816
2022-08-25T17:11:45.472Z,804
2022-08-25T17:13:01.651Z,784
2022-08-25T17:14:17.668Z,760
2022-08-25T17:15:34.048Z,736
2022-08-25T17:16:50.230Z,716